Mentone, CA (92359)

6:35 AM PST on December 18, 2014 (GMT -0800)
NonFedAWOS REDLANDS CA US SUPERAWOS | Change Station
CLOSE
Current Station
Personal Weather Station
Location: Redlands, CA
Elevation: 1570 ft
Nearby Weather Stations

Elev 1570 ft 34.09 °N, 117.15 °W | Updated 40 minutes ago

Clear
Clear
45 °F
Feels Like 41 °F
N
7
Wind Variable Wind from ENE
Gusts 0.0 mph

Today
High -- | Low -- °F
--% Chance of Precip.
Yesterday
High -- | Low -- °F
Precip. -- in
6:48 AM 4:41 PM
Waning Crescent, 14% visible
Pressure 30.14 in
Visibility 10.0 miles
Clouds Few 200 ft
Few 3000 ft
Few 12000 ft
Windchill 41 °F
Dew Point 32 °F
Humidity 61%
Rainfall -999.00 in
Snow Depth Not available.
UV 0 out of 12
Pollen 3.10 out of 12
Air Quality Not available.
Flu Activity Not available.
SPECI KRIV 181429Z 00000KT 10SM BCFG FEW002 FEW030 FEW120 04/04 A3014 RMK AO2A

More Conditions Fewer Conditions

Pressure 30.14 in
Visibility 10.0 miles
Clouds Few 200 ft
Few 3000 ft
Few 12000 ft
Windchill 41 °F
Dew Point 32 °F
Humidity 61%
Rainfall -999.00 in
Snow Depth Not available.
UV 0 out of 12
Pollen 3.10 out of 12
Air Quality Not available.
Flu Activity Not available.
SPECI KRIV 181429Z 00000KT 10SM BCFG FEW002 FEW030 FEW120 04/04 A3014 RMK AO2A

More Conditions Fewer Conditions

10-Day Weather Forecast

Almanac

Astronomy

Dec. 18, 2014 Rise Set
Actual Time
Civil Twilight
Nautical Twilight
Astronomical Twilight
Moon
Length of Visible Light
Length of Day
Tomorrow will be .
, % of the Moon is Illuminated

Today's Extremes

State Highs State Lows

Community

WunderPhotos

Upload Photos

1,778,929 photos uploaded!

WunderBlogs® & News

Nearby

Air Quality

  Air Quality AQ Index Pollutant
Not available.

Snow Depth

Station Depth Elevation

Earthquake Activity

City Distance Mag. Time & Date
Minimum magnitude displayed is 2.5.

Coastal Water Temperatures

Place Temperature

Nearby Weather Stations